createdAt,value
2023-04-04T00:01:11.117Z,17.27
2023-04-04T00:03:43.264Z,17.48
2023-04-04T00:06:11.673Z,17.39
2023-04-04T00:08:39.938Z,17.26
2023-04-04T00:11:08.439Z,17.53
2023-04-04T00:13:38.869Z,17.65
2023-04-04T00:16:07.018Z,17.80
2023-04-04T00:18:38.987Z,17.74
2023-04-04T00:21:07.667Z,17.15
2023-04-04T00:23:37.327Z,16.94
2023-04-04T00:26:05.553Z,17.00
2023-04-04T00:28:33.604Z,16.94
2023-04-04T00:31:02.394Z,16.93
2023-04-04T00:33:31.405Z,16.78
2023-04-04T00:35:59.877Z,16.79
2023-04-04T00:38:29.696Z,16.98
2023-04-04T00:40:57.803Z,16.82
2023-04-04T00:43:25.958Z,16.88
2023-04-04T00:45:54.055Z,16.97
2023-04-04T00:48:24.425Z,17.00
2023-04-04T00:50:52.759Z,17.06
2023-04-04T00:53:20.794Z,16.91
2023-04-04T00:55:49.171Z,16.97
2023-04-04T00:58:17.435Z,17.07
2023-04-04T01:00:45.470Z,17.30
2023-04-04T01:03:25.276Z,17.28
2023-04-04T01:05:55.286Z,17.22
2023-04-04T01:08:25.109Z,17.21
2023-04-04T01:10:56.330Z,17.42
2023-04-04T01:13:24.516Z,17.40
2023-04-04T01:15:53.196Z,17.67
2023-04-04T01:18:22.225Z,17.77
2023-04-04T01:24:03.253Z,13.57
2023-04-04T01:26:42.029Z,15.36
2023-04-04T01:29:10.499Z,15.38
2023-04-04T01:31:41.856Z,15.36
2023-04-04T01:34:12.277Z,15.76
2023-04-04T01:36:58.138Z,16.21
2023-04-04T01:39:35.947Z,16.26
2023-04-04T01:42:05.362Z,16.24
2023-04-04T01:44:34.541Z,16.24
2023-04-04T01:47:11.865Z,16.15
2023-04-04T01:49:40.930Z,15.99
2023-04-04T01:52:09.734Z,16.12
2023-04-04T01:54:39.190Z,16.29
2023-04-04T01:57:07.517Z,16.23
2023-04-04T01:59:36.674Z,16.27
2023-04-04T02:02:04.995Z,16.28
2023-04-04T02:04:33.287Z,16.11
2023-04-04T02:07:05.217Z,16.11
2023-04-04T02:09:34.516Z,16.13
2023-04-04T02:12:03.220Z,16.02
2023-04-04T02:14:35.809Z,16.14
2023-04-04T02:17:04.061Z,16.30
2023-04-04T02:19:32.237Z,16.51
2023-04-04T02:22:01.126Z,16.18
2023-04-04T02:24:30.015Z,16.33
2023-04-04T02:26:58.088Z,16.50
2023-04-04T02:29:27.863Z,15.86
2023-04-04T02:31:56.282Z,15.68
2023-04-04T02:34:24.460Z,15.89
2023-04-04T02:36:53.659Z,16.06
2023-04-04T02:39:22.401Z,16.34
2023-04-04T02:41:52.721Z,16.31
2023-04-04T02:44:20.925Z,16.39
2023-04-04T02:46:55.930Z,16.30
2023-04-04T02:49:29.784Z,16.49
2023-04-04T02:51:58.150Z,16.36
2023-04-04T02:54:27.250Z,16.59
2023-04-04T02:56:55.740Z,16.48
2023-04-04T02:59:24.916Z,16.19
2023-04-04T03:01:53.486Z,16.16
2023-04-04T03:04:21.995Z,16.56
2023-04-04T03:06:50.254Z,16.61
2023-04-04T03:09:19.354Z,16.58
2023-04-04T03:11:47.454Z,16.52
2023-04-04T03:14:23.691Z,16.65
2023-04-04T03:16:53.672Z,16.68
2023-04-04T03:19:21.896Z,16.67
2023-04-04T03:21:52.317Z,16.76
2023-04-04T03:24:20.526Z,16.82
2023-04-04T03:26:48.695Z,17.06
2023-04-04T03:29:17.451Z,17.06
2023-04-04T03:31:46.796Z,16.88
2023-04-04T03:34:15.842Z,16.49
2023-04-04T03:36:46.704Z,16.41
2023-04-04T03:39:14.959Z,16.59
2023-04-04T03:41:43.106Z,16.56
2023-04-04T03:44:11.119Z,16.57
2023-04-04T03:46:40.732Z,16.73
2023-04-04T03:49:09.586Z,16.56
2023-04-04T03:51:41.977Z,16.54
2023-04-04T03:54:10.256Z,16.28
2023-04-04T03:56:38.891Z,16.60
2023-04-04T03:59:07.273Z,16.81
2023-04-04T04:01:36.026Z,16.50
2023-04-04T04:04:06.761Z,16.48
2023-04-04T04:06:36.090Z,16.60
2023-04-04T04:09:04.233Z,16.61
2023-04-04T04:11:34.003Z,16.70
2023-04-04T04:14:02.080Z,16.88
2023-04-04T04:16:30.253Z,16.82
2023-04-04T04:18:59.274Z,16.44
2023-04-04T04:21:37.804Z,16.36
2023-04-04T04:24:08.586Z,16.16
2023-04-04T04:26:37.330Z,16.16
2023-04-04T04:29:07.541Z,16.34
2023-04-04T04:31:36.334Z,16.93
2023-04-04T04:34:08.776Z,16.90
2023-04-04T04:36:39.820Z,16.60
2023-04-04T04:39:36.571Z,16.54
2023-04-04T04:42:21.516Z,16.66
2023-04-04T04:44:53.855Z,16.78
2023-04-04T04:47:22.940Z,16.60
2023-04-04T04:49:54.870Z,16.48
2023-04-04T04:52:32.725Z,16.66
2023-04-04T04:55:02.169Z,16.57
2023-04-04T04:57:31.278Z,16.71
2023-04-04T05:00:01.466Z,16.84
2023-04-04T05:02:34.447Z,16.75
2023-04-04T05:05:03.282Z,16.70
2023-04-04T05:07:33.753Z,16.92
2023-04-04T05:10:07.259Z,16.67
2023-04-04T05:12:37.307Z,16.37
2023-04-04T05:15:06.807Z,16.70
2023-04-04T05:17:36.284Z,16.83
2023-04-04T05:20:08.777Z,16.76
2023-04-04T05:22:42.260Z,16.45
2023-04-04T05:25:13.942Z,16.19
2023-04-04T05:27:48.848Z,16.29
2023-04-04T05:30:18.660Z,16.42
2023-04-04T05:32:58.612Z,16.74
2023-04-04T05:35:29.586Z,16.72
2023-04-04T05:37:58.574Z,17.03
2023-04-04T05:40:26.907Z,17.13
2023-04-04T05:43:04.827Z,17.26
2023-04-04T05:45:41.794Z,17.14
2023-04-04T05:48:10.837Z,16.97
2023-04-04T05:50:47.495Z,17.06
2023-04-04T05:53:17.283Z,17.07
2023-04-04T05:55:47.438Z,17.20
2023-04-04T05:58:19.608Z,16.87
2023-04-04T06:00:52.555Z,16.82
2023-04-04T06:03:22.327Z,16.91
2023-04-04T06:05:55.680Z,16.89
2023-04-04T06:08:26.009Z,16.87
2023-04-04T06:10:56.117Z,17.09
2023-04-04T06:13:24.910Z,17.09
2023-04-04T06:15:57.203Z,17.19
2023-04-04T06:18:25.510Z,17.13
2023-04-04T06:20:56.896Z,17.33
2023-04-04T06:23:26.177Z,16.99
2023-04-04T06:25:54.470Z,17.21
2023-04-04T06:28:24.022Z,17.04
2023-04-04T06:30:52.546Z,17.11
2023-04-04T06:33:30.472Z,17.17
2023-04-04T06:35:59.054Z,17.13
2023-04-04T06:38:31.654Z,17.00
2023-04-04T06:41:04.020Z,17.18
2023-04-04T06:43:32.161Z,17.50
2023-04-04T06:46:00.220Z,17.45
2023-04-04T06:48:28.445Z,17.24
2023-04-04T06:50:57.219Z,17.19
2023-04-04T06:53:27.318Z,17.38
2023-04-04T06:55:55.740Z,17.30
2023-04-04T06:58:28.506Z,17.33
2023-04-04T07:01:00.038Z,17.27
2023-04-04T07:03:29.034Z,17.53
2023-04-04T07:05:57.684Z,17.57
2023-04-04T07:08:27.518Z,17.75
2023-04-04T07:10:59.011Z,17.71
2023-04-04T07:13:29.673Z,17.78
2023-04-04T07:15:58.140Z,17.83
2023-04-04T07:18:26.297Z,18.08
2023-04-04T07:20:54.307Z,18.23
2023-04-04T07:23:24.673Z,18.52
2023-04-04T07:25:53.458Z,18.57
2023-04-04T07:28:22.063Z,18.48
2023-04-04T07:31:01.980Z,18.25
2023-04-04T07:33:32.464Z,18.21
2023-04-04T07:36:03.641Z,18.00
2023-04-04T07:38:34.875Z,18.04
2023-04-04T07:41:04.392Z,18.05
2023-04-04T07:43:34.288Z,18.11
2023-04-04T07:46:04.732Z,18.16
2023-04-04T07:48:32.986Z,18.10
2023-04-04T07:51:05.403Z,17.94
2023-04-04T07:53:34.406Z,17.85
2023-04-04T07:56:06.607Z,18.14
2023-04-04T07:58:37.551Z,18.07
2023-04-04T08:01:05.476Z,17.80
2023-04-04T08:03:35.160Z,17.68
2023-04-04T08:06:03.307Z,17.90
2023-04-04T08:08:32.721Z,17.58
2023-04-04T08:11:03.193Z,17.39
2023-04-04T08:13:32.830Z,17.80
2023-04-04T08:16:01.360Z,18.04
2023-04-04T08:18:30.513Z,18.21
2023-04-04T08:20:59.120Z,18.40
2023-04-04T08:23:27.847Z,18.26
2023-04-04T08:25:56.237Z,18.31
2023-04-04T08:28:24.289Z,18.20
2023-04-04T08:30:54.636Z,18.31
2023-04-04T08:33:37.362Z,18.19
2023-04-04T08:36:16.325Z,17.98
2023-04-04T08:38:47.930Z,18.15
2023-04-04T08:41:16.291Z,18.06
2023-04-04T08:43:54.326Z,18.10
2023-04-04T08:46:23.522Z,18.21
2023-04-04T08:48:53.046Z,18.27
2023-04-04T08:51:21.192Z,18.32
2023-04-04T08:53:53.602Z,18.47
2023-04-04T08:56:21.872Z,18.74
2023-04-04T08:58:50.090Z,18.87
2023-04-04T09:01:18.396Z,18.94
2023-04-04T09:03:48.253Z,18.79
2023-04-04T09:06:16.692Z,18.88
2023-04-04T09:08:45.544Z,18.89
2023-04-04T09:11:14.058Z,19.11
2023-04-04T09:13:42.055Z,19.26
2023-04-04T09:16:10.486Z,19.10
2023-04-04T09:18:39.294Z,18.97
2023-04-04T09:21:14.797Z,18.85
2023-04-04T09:23:43.740Z,18.92
2023-04-04T09:26:13.459Z,19.00
2023-04-04T09:28:44.039Z,19.05
2023-04-04T09:31:11.991Z,18.41
2023-04-04T09:33:40.320Z,18.06
2023-04-04T09:36:11.158Z,18.71
2023-04-04T09:38:45.569Z,18.92
2023-04-04T09:41:14.788Z,19.20
2023-04-04T09:43:45.146Z,19.02
2023-04-04T09:46:13.262Z,18.91
2023-04-04T09:48:44.104Z,19.15
2023-04-04T09:51:12.852Z,19.10
2023-04-04T09:53:44.449Z,19.37
2023-04-04T09:56:12.935Z,19.21
2023-04-04T09:58:52.465Z,18.79
2023-04-04T10:01:28.824Z,19.02
2023-04-04T10:03:58.222Z,19.41
2023-04-04T10:06:27.109Z,19.47
2023-04-04T10:08:56.645Z,19.12
2023-04-04T10:11:34.510Z,18.98
2023-04-04T10:14:06.990Z,19.54
2023-04-04T10:16:37.999Z,19.43
2023-04-04T10:19:09.219Z,19.56
2023-04-04T10:21:43.255Z,19.92
2023-04-04T10:24:11.568Z,19.79
2023-04-04T10:26:39.986Z,19.82
2023-04-04T10:29:10.402Z,20.13
2023-04-04T10:31:41.042Z,20.29
2023-04-04T10:34:18.840Z,20.27
2023-04-04T10:36:54.375Z,20.20
2023-04-04T10:39:41.090Z,19.91
2023-04-04T10:42:09.063Z,19.90
2023-04-04T10:44:39.469Z,20.09
2023-04-04T10:47:19.673Z,19.35
2023-04-04T10:49:48.628Z,19.47
2023-04-04T10:52:24.984Z,20.14
2023-04-04T10:54:55.003Z,20.46
2023-04-04T10:57:23.981Z,20.38
2023-04-04T11:00:04.255Z,20.90
2023-04-04T11:02:51.550Z,21.11
2023-04-04T11:05:42.337Z,21.24
2023-04-04T11:08:14.166Z,21.28
2023-04-04T11:10:47.776Z,21.40
2023-04-04T11:13:26.578Z,21.56
2023-04-04T11:16:17.287Z,21.59
2023-04-04T11:18:50.303Z,21.72
2023-04-04T11:21:20.249Z,21.31
2023-04-04T11:23:51.328Z,21.23
2023-04-04T11:26:28.497Z,21.30
2023-04-04T11:29:00.159Z,21.40
2023-04-04T11:31:33.773Z,21.40
2023-04-04T11:34:15.241Z,21.18
2023-04-04T11:36:45.357Z,21.02
2023-04-04T11:39:24.715Z,20.92
2023-04-04T11:41:55.786Z,20.99
2023-04-04T11:44:29.438Z,21.26
2023-04-04T11:47:02.552Z,21.09
2023-04-04T11:49:38.387Z,21.05
2023-04-04T11:52:11.584Z,20.95
2023-04-04T11:54:40.869Z,20.90
2023-04-04T11:57:19.457Z,21.05
2023-04-04T11:59:48.859Z,21.12
2023-04-04T12:02:20.527Z,21.12
2023-04-04T12:04:49.283Z,21.28
2023-04-04T12:07:21.219Z,21.27
2023-04-04T12:09:49.616Z,21.34
2023-04-04T12:12:17.774Z,21.47
2023-04-04T12:14:50.380Z,21.50
2023-04-04T12:17:19.798Z,21.49
2023-04-04T12:19:47.830Z,21.42
2023-04-04T12:22:16.524Z,21.33
2023-04-04T12:24:45.075Z,21.22
2023-04-04T12:27:13.387Z,20.76
2023-04-04T12:29:43.103Z,20.52
2023-04-04T12:32:13.808Z,20.65
2023-04-04T12:34:45.561Z,20.77
2023-04-04T12:37:19.170Z,20.71
2023-04-04T12:39:52.642Z,20.79
2023-04-04T12:42:24.632Z,20.98
2023-04-04T12:44:53.825Z,20.90
2023-04-04T12:47:24.573Z,21.00
2023-04-04T12:49:56.544Z,20.94
2023-04-04T12:52:30.301Z,21.09
2023-04-04T12:55:08.069Z,21.14
2023-04-04T12:57:39.597Z,21.25
2023-04-04T13:00:09.441Z,21.15
2023-04-04T13:02:38.803Z,21.08
2023-04-04T13:05:08.035Z,21.08
2023-04-04T13:07:44.579Z,21.12
2023-04-04T13:10:15.095Z,21.25
2023-04-04T13:12:58.814Z,21.29
2023-04-04T13:15:49.602Z,21.30
2023-04-04T13:18:22.636Z,21.08
2023-04-04T13:20:52.392Z,20.99
2023-04-04T13:23:21.564Z,20.86
2023-04-04T13:25:50.058Z,20.93
2023-04-04T13:28:18.455Z,20.82
2023-04-04T13:30:49.225Z,20.44
2023-04-04T13:33:18.227Z,20.30
2023-04-04T13:35:46.613Z,20.82
2023-04-04T13:41:03.621Z,16.62
2023-04-04T13:43:35.447Z,17.57
2023-04-04T13:46:03.428Z,17.83
2023-04-04T13:48:32.316Z,18.11
2023-04-04T13:51:01.287Z,18.53
2023-04-04T13:53:29.334Z,18.92
2023-04-04T13:56:17.156Z,19.05
2023-04-04T13:58:46.484Z,19.10
2023-04-04T14:01:14.546Z,19.32
2023-04-04T14:03:43.916Z,19.23
2023-04-04T14:06:12.714Z,19.42
2023-04-04T14:08:40.913Z,19.71
2023-04-04T14:11:14.070Z,19.90
2023-04-04T14:13:43.383Z,19.83
2023-04-04T14:16:12.046Z,19.71
2023-04-04T14:18:41.490Z,19.59
2023-04-04T14:21:13.867Z,19.54
2023-04-04T14:23:42.983Z,19.68
2023-04-04T14:26:14.302Z,19.58
2023-04-04T14:28:42.714Z,19.69
2023-04-04T14:31:10.889Z,19.83
2023-04-04T14:33:39.424Z,19.83
2023-04-04T14:36:08.544Z,19.96
2023-04-04T14:38:36.978Z,20.01
2023-04-04T14:41:05.181Z,19.95
2023-04-04T14:43:35.454Z,19.80
2023-04-04T14:46:05.273Z,19.91
2023-04-04T14:48:34.785Z,20.08
2023-04-04T14:51:05.719Z,19.90
2023-04-04T14:53:33.759Z,19.49
2023-04-04T14:56:01.891Z,19.69
2023-04-04T14:58:33.205Z,19.68
2023-04-04T15:01:01.560Z,19.52
2023-04-04T15:03:30.711Z,19.63
2023-04-04T15:05:58.712Z,19.69
2023-04-04T15:08:28.495Z,19.85
2023-04-04T15:10:56.425Z,19.74
2023-04-04T15:13:31.395Z,19.54
2023-04-04T15:16:01.666Z,19.40
2023-04-04T15:18:30.542Z,19.62
2023-04-04T15:21:00.306Z,19.36
2023-04-04T15:23:28.390Z,19.01
2023-04-04T15:25:56.525Z,19.20
2023-04-04T15:28:27.258Z,19.53
2023-04-04T15:30:56.619Z,19.22
2023-04-04T15:33:24.864Z,19.32
2023-04-04T15:35:53.253Z,19.07
2023-04-04T15:38:21.611Z,19.16
2023-04-04T15:40:50.508Z,19.30
2023-04-04T15:43:19.900Z,19.58
2023-04-04T15:45:47.963Z,20.11
2023-04-04T15:48:16.604Z,20.11
2023-04-04T15:50:44.810Z,20.06
2023-04-04T15:53:13.636Z,20.07
2023-04-04T15:55:42.853Z,20.14
2023-04-04T15:58:11.228Z,20.05
2023-04-04T16:00:39.569Z,19.89
2023-04-04T16:03:13.997Z,20.16
2023-04-04T16:05:42.384Z,20.24
2023-04-04T16:08:16.302Z,20.09
2023-04-04T16:10:44.961Z,19.99
2023-04-04T16:13:13.451Z,19.95
2023-04-04T16:15:46.803Z,19.42
2023-04-04T16:18:15.711Z,19.43
2023-04-04T16:20:44.452Z,19.94
2023-04-04T16:23:18.454Z,19.88
2023-04-04T16:25:47.334Z,19.62
2023-04-04T16:28:15.598Z,19.29
2023-04-04T16:30:44.085Z,19.17
2023-04-04T16:33:13.886Z,19.13
2023-04-04T16:35:42.381Z,19.57
2023-04-04T16:38:12.696Z,19.60
2023-04-04T16:40:41.498Z,19.39
2023-04-04T16:43:10.178Z,19.45
2023-04-04T16:45:39.434Z,19.70
2023-04-04T16:48:07.825Z,19.66
2023-04-04T16:50:40.704Z,19.74
2023-04-04T16:53:09.954Z,19.53
2023-04-04T16:55:38.109Z,19.49
2023-04-04T16:58:06.327Z,19.05
2023-04-04T17:00:35.531Z,18.85
2023-04-04T17:03:05.109Z,18.80
2023-04-04T17:05:34.046Z,18.84
2023-04-04T17:08:02.046Z,19.38
2023-04-04T17:10:31.525Z,19.40
2023-04-04T17:12:59.710Z,19.35
2023-04-04T17:15:28.513Z,19.12
2023-04-04T17:17:57.227Z,19.14
2023-04-04T17:20:28.376Z,19.16
2023-04-04T17:22:57.935Z,19.31
2023-04-04T17:25:29.195Z,19.44
2023-04-04T17:27:57.778Z,19.37
2023-04-04T17:30:26.591Z,19.44
2023-04-04T17:32:56.369Z,19.62
2023-04-04T17:35:25.350Z,19.81
2023-04-04T17:37:54.066Z,19.52
2023-04-04T17:40:23.691Z,19.39
2023-04-04T17:42:52.263Z,19.48
2023-04-04T17:45:20.580Z,19.51
2023-04-04T17:47:48.836Z,19.63
2023-04-04T17:50:17.811Z,19.66
2023-04-04T17:52:46.498Z,19.25
2023-04-04T17:55:22.545Z,19.05
2023-04-04T17:57:51.097Z,19.12
2023-04-04T18:00:20.091Z,19.47
2023-04-04T18:02:48.857Z,19.29
2023-04-04T18:05:17.093Z,18.88
2023-04-04T18:07:45.464Z,18.34
2023-04-04T18:10:13.892Z,18.22
2023-04-04T18:12:44.409Z,18.56
2023-04-04T18:15:12.845Z,18.68
2023-04-04T18:17:42.189Z,18.76
2023-04-04T18:20:14.312Z,18.82
2023-04-04T18:22:48.336Z,19.01
2023-04-04T18:25:17.828Z,19.51
2023-04-04T18:27:45.991Z,19.57
2023-04-04T18:30:14.115Z,19.75
2023-04-04T18:32:42.605Z,19.72
2023-04-04T18:35:10.695Z,19.79
2023-04-04T18:37:38.892Z,19.84
2023-04-04T18:40:08.431Z,19.58
2023-04-04T18:42:37.591Z,19.57
2023-04-04T18:45:08.128Z,19.63
2023-04-04T18:47:36.970Z,19.76
2023-04-04T18:50:07.013Z,19.89
2023-04-04T18:52:36.532Z,19.63
2023-04-04T18:55:08.990Z,19.54
2023-04-04T18:57:38.723Z,19.29
2023-04-04T19:00:08.230Z,19.29
2023-04-04T19:02:38.486Z,19.23
2023-04-04T19:05:08.940Z,19.10
2023-04-04T19:07:37.574Z,18.89
2023-04-04T19:10:08.150Z,18.86
2023-04-04T19:12:41.079Z,18.73
2023-04-04T19:15:09.354Z,18.73
2023-04-04T19:17:39.109Z,18.73
2023-04-04T19:20:08.477Z,18.68
2023-04-04T19:22:36.461Z,18.66
2023-04-04T19:25:04.967Z,18.62
2023-04-04T19:27:33.032Z,18.96
2023-04-04T19:30:05.252Z,19.03
2023-04-04T19:32:42.924Z,19.01
2023-04-04T19:35:42.160Z,18.92
2023-04-04T19:38:11.067Z,18.93
2023-04-04T19:40:49.280Z,18.92
2023-04-04T19:43:22.741Z,18.99
2023-04-04T19:45:52.353Z,18.62
2023-04-04T19:48:43.754Z,18.55
2023-04-04T19:51:17.647Z,18.63
2023-04-04T19:53:47.426Z,18.63
2023-04-04T19:56:16.693Z,18.82
2023-04-04T19:58:45.660Z,18.80
2023-04-04T20:01:19.320Z,18.99
2023-04-04T20:03:47.507Z,19.04
2023-04-04T20:06:28.402Z,19.00
2023-04-04T20:09:02.062Z,18.97
2023-04-04T20:11:35.052Z,19.04
2023-04-04T20:14:07.317Z,19.13
2023-04-04T20:16:35.718Z,19.13
2023-04-04T20:19:06.706Z,18.94
2023-04-04T20:21:36.091Z,18.70
2023-04-04T20:24:08.348Z,18.89
2023-04-04T20:26:38.185Z,19.18
2023-04-04T20:29:08.367Z,19.14
2023-04-04T20:31:54.078Z,19.25
2023-04-04T20:34:38.760Z,19.11
2023-04-04T20:37:12.601Z,18.95
2023-04-04T20:39:46.834Z,18.76
2023-04-04T20:42:30.623Z,18.77
2023-04-04T20:45:08.232Z,18.90
2023-04-04T20:47:46.972Z,18.85
2023-04-04T20:50:18.776Z,18.78
2023-04-04T20:52:50.572Z,18.78
2023-04-04T20:55:19.430Z,18.74
2023-04-04T20:57:48.713Z,18.52
2023-04-04T21:00:28.697Z,18.49
2023-04-04T21:03:07.425Z,18.59
2023-04-04T21:05:38.564Z,18.50
2023-04-04T21:08:29.613Z,18.65
2023-04-04T21:10:57.787Z,18.67
2023-04-04T21:13:31.258Z,18.68
2023-04-04T21:16:00.808Z,18.75
2023-04-04T21:18:30.770Z,18.70
2023-04-04T21:21:13.919Z,18.70
2023-04-04T21:23:50.001Z,18.54
2023-04-04T21:26:32.025Z,18.60
2023-04-04T21:29:07.891Z,18.67
2023-04-04T21:31:38.572Z,18.76
2023-04-04T21:34:10.666Z,18.78
2023-04-04T21:36:41.408Z,18.77
2023-04-04T21:39:23.888Z,18.67
2023-04-04T21:41:56.577Z,18.24
2023-04-04T21:44:25.520Z,17.83
2023-04-04T21:46:56.505Z,17.78
2023-04-04T21:49:24.778Z,17.76
2023-04-04T21:51:53.263Z,17.97
2023-04-04T21:54:21.729Z,18.02
2023-04-04T21:56:49.706Z,18.11
2023-04-04T21:59:18.027Z,18.01
2023-04-04T22:01:46.209Z,17.99
2023-04-04T22:04:15.463Z,17.93
2023-04-04T22:06:44.129Z,18.34
2023-04-04T22:09:12.115Z,17.98
2023-04-04T22:11:44.445Z,17.93
2023-04-04T22:14:17.371Z,17.87
2023-04-04T22:16:46.018Z,17.76
2023-04-04T22:19:14.284Z,17.91
2023-04-04T22:21:47.297Z,18.17
2023-04-04T22:24:18.655Z,18.36
2023-04-04T22:26:47.360Z,18.31
2023-04-04T22:29:15.498Z,18.27
2023-04-04T22:31:45.734Z,18.35
2023-04-04T22:34:15.226Z,18.64
2023-04-04T22:36:45.889Z,18.71
2023-04-04T22:39:16.316Z,18.56
2023-04-04T22:41:44.993Z,18.51
2023-04-04T22:44:13.410Z,18.24
2023-04-04T22:46:41.656Z,18.22
2023-04-04T22:49:10.017Z,18.41
2023-04-04T22:51:45.724Z,18.39
2023-04-04T22:54:15.929Z,18.40
2023-04-04T22:56:44.609Z,18.26
2023-04-04T22:59:17.860Z,18.14
2023-04-04T23:01:47.543Z,18.47
2023-04-04T23:04:16.756Z,18.44
2023-04-04T23:06:46.416Z,18.32
2023-04-04T23:09:14.757Z,18.42
2023-04-04T23:11:42.890Z,18.43
2023-04-04T23:14:14.854Z,18.28
2023-04-04T23:16:44.207Z,18.20
2023-04-04T23:19:12.756Z,18.19
2023-04-04T23:21:49.397Z,17.99
2023-04-04T23:24:17.862Z,18.21
2023-04-04T23:26:45.905Z,18.47
2023-04-04T23:29:14.581Z,18.32
2023-04-04T23:31:42.948Z,18.08
2023-04-04T23:34:11.351Z,18.15
2023-04-04T23:36:39.333Z,17.94
2023-04-04T23:39:11.703Z,17.99
2023-04-04T23:41:40.661Z,17.82
2023-04-04T23:44:08.661Z,17.78
2023-04-04T23:46:37.701Z,17.59
2023-04-04T23:49:06.170Z,17.49
2023-04-04T23:51:39.917Z,17.67
2023-04-04T23:54:10.611Z,17.51
2023-04-04T23:56:38.766Z,17.50
2023-04-04T23:59:07.386Z,17.48
